sensor_id;sensor_type;location;lat;lon;timestamp;pressure;altitude;pressure_sealevel;temperature;humidity
7474;BME280;3778;42.572;23.426;2022-08-01T00:02:18;72035.19;;;-146.70;64.23
7474;BME280;3778;42.572;23.426;2022-08-01T00:04:45;72041.41;;;-146.70;64.36
7474;BME280;3778;42.572;23.426;2022-08-01T00:07:11;72043.50;;;-146.70;63.52
7474;BME280;3778;42.572;23.426;2022-08-01T00:09:38;72043.50;;;-146.70;63.42
7474;BME280;3778;42.572;23.426;2022-08-01T00:12:07;72035.19;;;-146.70;63.10
7474;BME280;3778;42.572;23.426;2022-08-01T00:14:34;72031.06;;;-146.70;63.07
7474;BME280;3778;42.572;23.426;2022-08-01T00:17:00;72033.13;;;-146.70;63.07
7474;BME280;3778;42.572;23.426;2022-08-01T00:19:27;72031.06;;;-146.70;63.33
7474;BME280;3778;42.572;23.426;2022-08-01T00:21:54;72037.28;;;-146.70;63.37
7474;BME280;3778;42.572;23.426;2022-08-01T00:24:21;72045.56;;;-146.70;63.54
7474;BME280;3778;42.572;23.426;2022-08-01T00:26:48;72051.78;;;-146.70;64.06
7474;BME280;3778;42.572;23.426;2022-08-01T00:29:16;72047.63;;;-146.70;63.96
7474;BME280;3778;42.572;23.426;2022-08-01T00:31:43;72049.72;;;-146.70;64.09
7474;BME280;3778;42.572;23.426;2022-08-01T00:34:10;72051.78;;;-146.70;63.97
7474;BME280;3778;42.572;23.426;2022-08-01T00:36:37;72051.78;;;-146.70;64.10
7474;BME280;3778;42.572;23.426;2022-08-01T00:39:04;72055.94;;;-146.70;64.17
7474;BME280;3778;42.572;23.426;2022-08-01T00:41:32;72049.72;;;-146.70;63.93
7474;BME280;3778;42.572;23.426;2022-08-01T00:44:02;72051.78;;;-146.70;63.98
7474;BME280;3778;42.572;23.426;2022-08-01T00:46:30;72051.78;;;-146.70;63.54
7474;BME280;3778;42.572;23.426;2022-08-01T00:48:57;72047.63;;;-146.70;63.28
7474;BME280;3778;42.572;23.426;2022-08-01T00:51:25;72043.50;;;-146.70;62.37
7474;BME280;3778;42.572;23.426;2022-08-01T00:53:52;72035.19;;;-146.70;61.13
7474;BME280;3778;42.572;23.426;2022-08-01T00:56:20;72022.78;;;-146.70;60.63
7474;BME280;3778;42.572;23.426;2022-08-01T00:58:47;72018.63;;;-146.70;60.42
7474;BME280;3778;42.572;23.426;2022-08-01T01:01:14;72022.78;;;-146.70;61.19
7474;BME280;3778;42.572;23.426;2022-08-01T01:03:43;72037.28;;;-146.70;61.67
7474;BME280;3778;42.572;23.426;2022-08-01T01:06:19;72035.19;;;-146.70;62.11
7474;BME280;3778;42.572;23.426;2022-08-01T01:08:58;72033.13;;;-146.70;61.32
7474;BME280;3778;42.572;23.426;2022-08-01T01:11:32;72041.41;;;-146.70;62.20
7474;BME280;3778;42.572;23.426;2022-08-01T01:14:05;72055.94;;;-146.70;62.89
7474;BME280;3778;42.572;23.426;2022-08-01T01:16:37;72091.16;;;-146.70;64.25
7474;BME280;3778;42.572;23.426;2022-08-01T01:19:12;72091.16;;;-146.70;64.19
7474;BME280;3778;42.572;23.426;2022-08-01T01:24:45;72089.09;;;-146.70;63.55
7474;BME280;3778;42.572;23.426;2022-08-01T01:27:22;72076.66;;;-146.70;63.23
7474;BME280;3778;42.572;23.426;2022-08-01T01:29:54;72058.00;;;-146.70;62.61
7474;BME280;3778;42.572;23.426;2022-08-01T01:32:28;72060.06;;;-146.70;62.46
7474;BME280;3778;42.572;23.426;2022-08-01T01:35:00;72070.44;;;-146.70;62.96
7474;BME280;3778;42.572;23.426;2022-08-01T01:37:29;72070.44;;;-146.70;62.18
7474;BME280;3778;42.572;23.426;2022-08-01T01:39:59;72066.28;;;-146.70;60.98
7474;BME280;3778;42.572;23.426;2022-08-01T01:42:28;72078.72;;;-146.70;61.87
7474;BME280;3778;42.572;23.426;2022-08-01T01:44:58;72074.56;;;-146.70;62.53
7474;BME280;3778;42.572;23.426;2022-08-01T01:47:27;72076.66;;;-146.70;62.26
7474;BME280;3778;42.572;23.426;2022-08-01T01:49:55;72080.78;;;-146.70;62.03
7474;BME280;3778;42.572;23.426;2022-08-01T01:52:24;72082.88;;;-146.70;62.00
7474;BME280;3778;42.572;23.426;2022-08-01T01:54:54;72076.66;;;-146.70;61.31
7474;BME280;3778;42.572;23.426;2022-08-01T01:57:23;72062.16;;;-146.70;60.86
7474;BME280;3778;42.572;23.426;2022-08-01T01:59:51;72066.28;;;-146.70;61.04
7474;BME280;3778;42.572;23.426;2022-08-01T02:02:22;72070.44;;;-146.70;61.01
7474;BME280;3778;42.572;23.426;2022-08-01T02:04:51;72070.44;;;-146.70;60.54
7474;BME280;3778;42.572;23.426;2022-08-01T02:07:21;72072.50;;;-146.70;60.44
7474;BME280;3778;42.572;23.426;2022-08-01T02:09:49;72064.22;;;-146.70;60.99
7474;BME280;3778;42.572;23.426;2022-08-01T02:12:19;72060.06;;;-146.70;60.31
7474;BME280;3778;42.572;23.426;2022-08-01T02:14:48;72055.94;;;-146.70;59.50
7474;BME280;3778;42.572;23.426;2022-08-01T02:17:18;72051.78;;;-146.70;59.53
7474;BME280;3778;42.572;23.426;2022-08-01T02:19:48;72047.63;;;-146.70;59.03
7474;BME280;3778;42.572;23.426;2022-08-01T02:22:19;72051.78;;;-146.70;59.20
7474;BME280;3778;42.572;23.426;2022-08-01T02:24:50;72051.78;;;-146.70;59.86
7474;BME280;3778;42.572;23.426;2022-08-01T02:27:24;72064.22;;;-146.70;59.75
7474;BME280;3778;42.572;23.426;2022-08-01T02:29:53;72055.94;;;-146.70;59.53
7474;BME280;3778;42.572;23.426;2022-08-01T02:32:25;72047.63;;;-146.70;58.84
7474;BME280;3778;42.572;23.426;2022-08-01T02:34:55;72045.56;;;-146.70;58.46
7474;BME280;3778;42.572;23.426;2022-08-01T02:37:26;72043.50;;;-146.70;58.60
7474;BME280;3778;42.572;23.426;2022-08-01T02:39:54;72051.78;;;-146.70;59.43
7474;BME280;3778;42.572;23.426;2022-08-01T02:42:22;72060.06;;;-146.70;59.97
7474;BME280;3778;42.572;23.426;2022-08-01T02:44:53;72062.16;;;-146.70;59.47
7474;BME280;3778;42.572;23.426;2022-08-01T02:47:22;72070.44;;;-146.70;59.88
7474;BME280;3778;42.572;23.426;2022-08-01T02:49:52;72078.72;;;-146.70;59.57
7474;BME280;3778;42.572;23.426;2022-08-01T02:52:23;72070.44;;;-146.70;58.93
7474;BME280;3778;42.572;23.426;2022-08-01T02:54:53;72062.16;;;-146.70;58.45
7474;BME280;3778;42.572;23.426;2022-08-01T02:57:22;72060.06;;;-146.70;58.36
7474;BME280;3778;42.572;23.426;2022-08-01T02:59:50;72060.06;;;-146.70;59.13
7474;BME280;3778;42.572;23.426;2022-08-01T03:02:19;72076.66;;;-146.70;58.91
7474;BME280;3778;42.572;23.426;2022-08-01T03:04:47;72078.72;;;-146.70;58.91
7474;BME280;3778;42.572;23.426;2022-08-01T03:07:17;72089.09;;;-146.70;58.83
7474;BME280;3778;42.572;23.426;2022-08-01T03:09:47;72097.38;;;-146.70;59.46
7474;BME280;3778;42.572;23.426;2022-08-01T03:12:17;72107.75;;;-146.70;60.18
7474;BME280;3778;42.572;23.426;2022-08-01T03:14:46;72111.88;;;-146.70;60.24
7474;BME280;3778;42.572;23.426;2022-08-01T03:17:15;72111.88;;;-146.70;60.03
7474;BME280;3778;42.572;23.426;2022-08-01T03:19:45;72101.53;;;-146.70;59.79
7474;BME280;3778;42.572;23.426;2022-08-01T03:22:13;72109.81;;;-146.70;60.06
7474;BME280;3778;42.572;23.426;2022-08-01T03:24:41;72109.81;;;-146.70;60.03
7474;BME280;3778;42.572;23.426;2022-08-01T03:27:11;72111.88;;;-146.70;60.39
7474;BME280;3778;42.572;23.426;2022-08-01T03:29:40;72126.38;;;-146.70;61.08
7474;BME280;3778;42.572;23.426;2022-08-01T03:32:09;72130.53;;;-146.70;60.37
7474;BME280;3778;42.572;23.426;2022-08-01T03:34:37;72132.59;;;-146.70;60.43
7474;BME280;3778;42.572;23.426;2022-08-01T03:37:09;72126.38;;;-146.70;60.08
7474;BME280;3778;42.572;23.426;2022-08-01T03:39:42;72130.53;;;-146.70;59.70
7474;BME280;3778;42.572;23.426;2022-08-01T03:42:17;72132.59;;;-146.70;59.67
7474;BME280;3778;42.572;23.426;2022-08-01T03:44:49;72134.69;;;-146.70;59.28
7474;BME280;3778;42.572;23.426;2022-08-01T03:47:22;72120.16;;;-146.70;59.38
7474;BME280;3778;42.572;23.426;2022-08-01T03:49:51;72120.16;;;-146.70;59.09
7474;BME280;3778;42.572;23.426;2022-08-01T03:52:19;72118.09;;;-146.70;59.56
7474;BME280;3778;42.572;23.426;2022-08-01T03:54:47;72130.53;;;-146.70;60.61
7474;BME280;3778;42.572;23.426;2022-08-01T03:57:19;72122.25;;;-146.70;60.10
7474;BME280;3778;42.572;23.426;2022-08-01T03:59:46;72128.47;;;-146.70;60.26
7474;BME280;3778;42.572;23.426;2022-08-01T04:02:15;72128.47;;;-146.70;59.94
7474;BME280;3778;42.572;23.426;2022-08-01T04:04:43;72126.38;;;-146.70;60.05
7474;BME280;3778;42.572;23.426;2022-08-01T04:07:22;72118.09;;;-146.70;59.72
7474;BME280;3778;42.572;23.426;2022-08-01T04:09:49;72107.75;;;-146.70;59.17
7474;BME280;3778;42.572;23.426;2022-08-01T04:12:17;72103.59;;;-146.70;59.03
7474;BME280;3778;42.572;23.426;2022-08-01T04:14:44;72101.53;;;-146.70;59.49
7474;BME280;3778;42.572;23.426;2022-08-01T04:17:11;72111.88;;;-146.70;60.20
7474;BME280;3778;42.572;23.426;2022-08-01T04:19:38;72118.09;;;-146.70;61.07
7474;BME280;3778;42.572;23.426;2022-08-01T04:22:05;72103.59;;;-146.70;60.23
7474;BME280;3778;42.572;23.426;2022-08-01T04:24:35;72089.09;;;-146.70;59.59
7474;BME280;3778;42.572;23.426;2022-08-01T04:27:08;72072.50;;;-146.70;59.25
7474;BME280;3778;42.572;23.426;2022-08-01T04:29:38;72058.00;;;-146.70;58.98
7474;BME280;3778;42.572;23.426;2022-08-01T04:32:06;72043.50;;;-146.70;58.30
7474;BME280;3778;42.572;23.426;2022-08-01T04:34:38;72031.06;;;-146.70;58.17
7474;BME280;3778;42.572;23.426;2022-08-01T04:37:07;72022.78;;;-146.70;57.91
7474;BME280;3778;42.572;23.426;2022-08-01T04:39:36;72018.63;;;-146.70;57.96
7474;BME280;3778;42.572;23.426;2022-08-01T04:42:04;72014.47;;;-146.70;57.93
7474;BME280;3778;42.572;23.426;2022-08-01T04:44:32;72002.06;;;-146.70;57.70
7474;BME280;3778;42.572;23.426;2022-08-01T04:47:01;71997.91;;;-146.70;57.38
7474;BME280;3778;42.572;23.426;2022-08-01T04:49:30;71991.69;;;-146.70;57.41
7474;BME280;3778;42.572;23.426;2022-08-01T04:51:57;71973.03;;;-146.70;58.05
7474;BME280;3778;42.572;23.426;2022-08-01T04:54:26;71970.97;;;-146.70;57.51
7474;BME280;3778;42.572;23.426;2022-08-01T04:56:54;71960.59;;;-146.70;56.56
7474;BME280;3778;42.572;23.426;2022-08-01T04:59:25;71939.88;;;-146.70;56.53
7474;BME280;3778;42.572;23.426;2022-08-01T05:02:10;71915.00;;;-146.70;56.17
7474;BME280;3778;42.572;23.426;2022-08-01T05:04:37;71910.88;;;-146.70;55.69
7474;BME280;3778;42.572;23.426;2022-08-01T05:07:05;71902.59;;;-146.70;56.09
7474;BME280;3778;42.572;23.426;2022-08-01T05:09:32;71894.28;;;-146.70;56.89
7474;BME280;3778;42.572;23.426;2022-08-01T05:12:00;71886.00;;;-146.70;57.10
7474;BME280;3778;42.572;23.426;2022-08-01T05:14:27;71869.44;;;-146.70;57.80
7474;BME280;3778;42.572;23.426;2022-08-01T05:16:57;71857.00;;;-146.70;56.63
7474;BME280;3778;42.572;23.426;2022-08-01T05:19:25;71848.69;;;-146.70;55.01
7474;BME280;3778;42.572;23.426;2022-08-01T05:21:53;71840.41;;;-146.70;56.07
7474;BME280;3778;42.572;23.426;2022-08-01T05:24:19;71842.50;;;-146.70;55.48
7474;BME280;3778;42.572;23.426;2022-08-01T05:26:47;71830.06;;;-146.70;55.23
7474;BME280;3778;42.572;23.426;2022-08-01T05:29:14;71815.53;;;-146.70;56.21
7474;BME280;3778;42.572;23.426;2022-08-01T05:31:41;71798.97;;;-146.70;56.77
7474;BME280;3778;42.572;23.426;2022-08-01T05:34:08;71780.31;;;-146.70;57.47
7474;BME280;3778;42.572;23.426;2022-08-01T05:36:36;71767.88;;;-146.70;55.95
7474;BME280;3778;42.572;23.426;2022-08-01T05:39:03;71751.31;;;-146.70;54.43
7474;BME280;3778;42.572;23.426;2022-08-01T05:41:30;71728.53;;;-146.70;55.15
7474;BME280;3778;42.572;23.426;2022-08-01T05:43:57;71705.72;;;-146.70;53.40
7474;BME280;3778;42.572;23.426;2022-08-01T05:46:24;71697.44;;;-146.70;54.35
7474;BME280;3778;42.572;23.426;2022-08-01T05:48:51;71695.38;;;-146.70;54.80
7474;BME280;3778;42.572;23.426;2022-08-01T05:51:17;71680.84;;;-146.70;54.02
7474;BME280;3778;42.572;23.426;2022-08-01T05:53:46;71678.78;;;-146.70;55.08
7474;BME280;3778;42.572;23.426;2022-08-01T05:56:12;71653.91;;;-146.70;52.84
7474;BME280;3778;42.572;23.426;2022-08-01T05:58:39;71651.84;;;-146.70;52.79
7474;BME280;3778;42.572;23.426;2022-08-01T06:01:06;71639.41;;;-146.70;53.63
7474;BME280;3778;42.572;23.426;2022-08-01T06:03:33;71614.56;;;-146.70;52.89
7474;BME280;3778;42.572;23.426;2022-08-01T06:06:00;71606.25;;;-146.70;50.63
7474;BME280;3778;42.572;23.426;2022-08-01T06:08:27;71581.41;;;-146.70;46.66
7474;BME280;3778;42.572;23.426;2022-08-01T06:10:55;71558.59;;;-146.70;45.88
7474;BME280;3778;42.572;23.426;2022-08-01T06:13:22;71550.31;;;-146.70;46.85
7474;BME280;3778;42.572;23.426;2022-08-01T06:15:49;71539.97;;;-146.70;48.43
7474;BME280;3778;42.572;23.426;2022-08-01T06:18:16;71533.75;;;-146.70;47.40
7474;BME280;3778;42.572;23.426;2022-08-01T06:20:43;71515.09;;;-146.70;47.98
7474;BME280;3778;42.572;23.426;2022-08-01T06:23:10;71519.25;;;-146.70;46.51
7474;BME280;3778;42.572;23.426;2022-08-01T06:25:37;71515.09;;;-146.70;46.70
7474;BME280;3778;42.572;23.426;2022-08-01T06:28:05;71500.59;;;-146.70;46.24
7474;BME280;3778;42.572;23.426;2022-08-01T06:30:31;71477.81;;;-146.70;43.95
7474;BME280;3778;42.572;23.426;2022-08-01T06:32:58;71475.72;;;-146.70;44.62
7474;BME280;3778;42.572;23.426;2022-08-01T06:35:26;71465.38;;;-146.70;43.22
7474;BME280;3778;42.572;23.426;2022-08-01T06:37:53;71457.06;;;-146.70;43.08
7474;BME280;3778;42.572;23.426;2022-08-01T06:40:20;71457.06;;;-146.70;42.74
7474;BME280;3778;42.572;23.426;2022-08-01T06:42:47;71450.88;;;-146.70;42.23
7474;BME280;3778;42.572;23.426;2022-08-01T06:45:15;71450.88;;;-146.70;42.13
7474;BME280;3778;42.572;23.426;2022-08-01T06:47:43;71444.66;;;-146.70;42.03
7474;BME280;3778;42.572;23.426;2022-08-01T06:50:11;71419.78;;;-146.70;42.40
7474;BME280;3778;42.572;23.426;2022-08-01T06:52:39;71413.56;;;-146.70;42.29
7474;BME280;3778;42.572;23.426;2022-08-01T06:55:07;71405.28;;;-146.70;41.33
7474;BME280;3778;42.572;23.426;2022-08-01T06:57:34;71405.28;;;-146.70;42.29
7474;BME280;3778;42.572;23.426;2022-08-01T07:00:03;71403.22;;;-146.70;42.61
7474;BME280;3778;42.572;23.426;2022-08-01T07:02:33;71397.00;;;-146.70;41.81
7474;BME280;3778;42.572;23.426;2022-08-01T07:04:59;71380.41;;;-146.70;41.87
7474;BME280;3778;42.572;23.426;2022-08-01T07:07:26;71370.06;;;-146.70;42.94
7474;BME280;3778;42.572;23.426;2022-08-01T07:09:53;71361.78;;;-146.70;42.66
7474;BME280;3778;42.572;23.426;2022-08-01T07:12:20;71349.34;;;-146.70;41.55
7474;BME280;3778;42.572;23.426;2022-08-01T07:14:47;71361.78;;;-146.70;42.63
7474;BME280;3778;42.572;23.426;2022-08-01T07:17:13;71367.97;;;-146.70;42.21
7474;BME280;3778;42.572;23.426;2022-08-01T07:19:42;71357.63;;;-146.70;41.98
7474;BME280;3778;42.572;23.426;2022-08-01T07:22:09;71351.41;;;-146.70;42.19
7474;BME280;3778;42.572;23.426;2022-08-01T07:24:35;71355.56;;;-146.70;42.49
7474;BME280;3778;42.572;23.426;2022-08-01T07:27:02;71351.41;;;-146.70;42.31
7474;BME280;3778;42.572;23.426;2022-08-01T07:29:29;71343.13;;;-146.70;41.95
7474;BME280;3778;42.572;23.426;2022-08-01T07:31:56;71328.63;;;-146.70;42.78
7474;BME280;3778;42.572;23.426;2022-08-01T07:34:24;71326.53;;;-146.70;42.26
7474;BME280;3778;42.572;23.426;2022-08-01T07:36:53;71338.97;;;-146.70;42.18
7474;BME280;3778;42.572;23.426;2022-08-01T07:39:20;71363.84;;;-146.70;42.34
7474;BME280;3778;42.572;23.426;2022-08-01T07:41:47;71359.69;;;-146.70;41.99
7474;BME280;3778;42.572;23.426;2022-08-01T07:44:14;71343.13;;;-146.70;42.28
7474;BME280;3778;42.572;23.426;2022-08-01T07:46:40;71326.53;;;-146.70;41.87
7474;BME280;3778;42.572;23.426;2022-08-01T07:49:07;71328.63;;;-146.70;42.44
7474;BME280;3778;42.572;23.426;2022-08-01T07:51:34;71320.34;;;-146.70;42.71
7474;BME280;3778;42.572;23.426;2022-08-01T07:54:02;71291.31;;;-146.70;43.17
7474;BME280;3778;42.572;23.426;2022-08-01T07:56:29;71301.69;;;-146.70;41.19
7474;BME280;3778;42.572;23.426;2022-08-01T07:58:56;71338.97;;;-146.70;41.95
7474;BME280;3778;42.572;23.426;2022-08-01T08:01:22;71297.53;;;-146.70;42.13
7474;BME280;3778;42.572;23.426;2022-08-01T08:03:49;71276.81;;;-146.70;41.38
7474;BME280;3778;42.572;23.426;2022-08-01T08:06:16;71264.38;;;-146.70;41.04
7474;BME280;3778;42.572;23.426;2022-08-01T08:08:42;71270.59;;;-146.70;40.19
7474;BME280;3778;42.572;23.426;2022-08-01T08:11:11;71266.47;;;-146.70;40.12
7474;BME280;3778;42.572;23.426;2022-08-01T08:13:37;71251.97;;;-146.70;39.81
7474;BME280;3778;42.572;23.426;2022-08-01T08:16:04;71272.69;;;-146.70;41.06
7474;BME280;3778;42.572;23.426;2022-08-01T08:18:31;71241.59;;;-146.70;40.26
7474;BME280;3778;42.572;23.426;2022-08-01T08:20:58;71251.97;;;-146.70;40.20
7474;BME280;3778;42.572;23.426;2022-08-01T08:23:24;71256.09;;;-146.70;40.17
7474;BME280;3778;42.572;23.426;2022-08-01T08:26:09;71254.03;;;-146.70;40.78
7474;BME280;3778;42.572;23.426;2022-08-01T08:28:37;71241.59;;;-146.70;39.75
7474;BME280;3778;42.572;23.426;2022-08-01T08:31:04;71266.47;;;-146.70;40.71
7474;BME280;3778;42.572;23.426;2022-08-01T08:33:30;71235.38;;;-146.70;40.58
7474;BME280;3778;42.572;23.426;2022-08-01T08:35:57;71258.16;;;-146.70;39.64
7474;BME280;3778;42.572;23.426;2022-08-01T08:38:24;71258.16;;;-146.70;40.82
7474;BME280;3778;42.572;23.426;2022-08-01T08:40:53;71247.81;;;-146.70;40.15
7474;BME280;3778;42.572;23.426;2022-08-01T08:43:23;71220.88;;;-146.70;39.96
7474;BME280;3778;42.572;23.426;2022-08-01T08:45:55;71241.59;;;-146.70;39.88
7474;BME280;3778;42.572;23.426;2022-08-01T08:48:22;71235.38;;;-146.70;40.52
7474;BME280;3778;42.572;23.426;2022-08-01T08:50:50;71231.25;;;-146.70;39.73
7474;BME280;3778;42.572;23.426;2022-08-01T08:53:18;71245.75;;;-146.70;39.27
7474;BME280;3778;42.572;23.426;2022-08-01T08:55:45;71231.25;;;-146.70;39.46
7474;BME280;3778;42.572;23.426;2022-08-01T08:58:13;71222.94;;;-146.70;39.64
7474;BME280;3778;42.572;23.426;2022-08-01T09:00:41;71210.53;;;-146.70;40.52
7474;BME280;3778;42.572;23.426;2022-08-01T09:03:09;71200.16;;;-146.70;40.54
7474;BME280;3778;42.572;23.426;2022-08-01T09:05:36;71189.81;;;-146.70;39.02
7474;BME280;3778;42.572;23.426;2022-08-01T09:08:06;71206.38;;;-146.70;39.99
7474;BME280;3778;42.572;23.426;2022-08-01T09:10:33;71191.88;;;-146.70;39.93
7474;BME280;3778;42.572;23.426;2022-08-01T09:13:05;71193.94;;;-146.70;38.56
7474;BME280;3778;42.572;23.426;2022-08-01T09:15:42;71164.94;;;-146.70;38.58
7474;BME280;3778;42.572;23.426;2022-08-01T09:18:25;71177.38;;;-146.70;38.72
7474;BME280;3778;42.572;23.426;2022-08-01T09:21:07;71177.38;;;-146.70;39.08
7474;BME280;3778;42.572;23.426;2022-08-01T09:23:35;71156.66;;;-146.70;39.55
7474;BME280;3778;42.572;23.426;2022-08-01T09:26:05;71148.38;;;-146.70;39.01
7474;BME280;3778;42.572;23.426;2022-08-01T09:28:32;71140.06;;;-146.70;38.65
7474;BME280;3778;42.572;23.426;2022-08-01T09:30:59;71140.06;;;-146.70;38.29
7474;BME280;3778;42.572;23.426;2022-08-01T09:36:27;71133.88;;;-146.70;37.92
7474;BME280;3778;42.572;23.426;2022-08-01T09:39:24;71113.16;;;-146.70;39.28
7474;BME280;3778;42.572;23.426;2022-08-01T09:41:51;71115.22;;;-146.70;37.95
7474;BME280;3778;42.572;23.426;2022-08-01T09:44:18;71115.22;;;-146.70;39.91
7474;BME280;3778;42.572;23.426;2022-08-01T09:46:53;71098.66;;;-146.70;39.58
7474;BME280;3778;42.572;23.426;2022-08-01T09:49:28;71082.06;;;-146.70;39.24
7474;BME280;3778;42.572;23.426;2022-08-01T09:51:57;71077.94;;;-146.70;39.15
7474;BME280;3778;42.572;23.426;2022-08-01T09:54:30;71090.34;;;-146.70;38.93
7474;BME280;3778;42.572;23.426;2022-08-01T09:57:18;71086.22;;;-146.70;38.69
7474;BME280;3778;42.572;23.426;2022-08-01T09:59:46;71075.84;;;-146.70;39.23
7474;BME280;3778;42.572;23.426;2022-08-01T10:02:25;71082.06;;;-146.70;38.43
7474;BME280;3778;42.572;23.426;2022-08-01T10:04:53;71061.34;;;-146.70;38.43
7474;BME280;3778;42.572;23.426;2022-08-01T10:07:21;71040.63;;;-146.70;38.22
7474;BME280;3778;42.572;23.426;2022-08-01T10:09:48;71036.50;;;-146.70;38.80
7474;BME280;3778;42.572;23.426;2022-08-01T10:12:17;71046.84;;;-146.70;38.16
7474;BME280;3778;42.572;23.426;2022-08-01T10:14:45;71040.63;;;-146.70;38.31
7474;BME280;3778;42.572;23.426;2022-08-01T10:17:14;71040.63;;;-146.70;39.27
7474;BME280;3778;42.572;23.426;2022-08-01T10:19:42;71030.28;;;-146.70;38.54
7474;BME280;3778;42.572;23.426;2022-08-01T10:22:10;71026.13;;;-146.70;39.14
7474;BME280;3778;42.572;23.426;2022-08-01T10:24:40;71013.69;;;-146.70;39.53
7474;BME280;3778;42.572;23.426;2022-08-01T10:27:09;70982.63;;;-146.70;38.78
7474;BME280;3778;42.572;23.426;2022-08-01T10:29:40;70980.56;;;-146.70;37.59
7474;BME280;3778;42.572;23.426;2022-08-01T10:32:08;71009.56;;;-146.70;38.20
7474;BME280;3778;42.572;23.426;2022-08-01T10:34:36;70970.19;;;-146.70;38.86
7474;BME280;3778;42.572;23.426;2022-08-01T10:37:03;70978.47;;;-146.70;37.42
7474;BME280;3778;42.572;23.426;2022-08-01T10:39:31;70984.69;;;-146.70;37.03
7474;BME280;3778;42.572;23.426;2022-08-01T10:42:00;71028.19;;;-146.70;37.90
7474;BME280;3778;42.572;23.426;2022-08-01T10:44:28;71019.91;;;-146.70;38.64
7474;BME280;3778;42.572;23.426;2022-08-01T10:47:01;71001.28;;;-146.70;37.84
7474;BME280;3778;42.572;23.426;2022-08-01T10:49:30;71001.28;;;-146.70;38.03
7474;BME280;3778;42.572;23.426;2022-08-01T10:52:02;70982.63;;;-146.70;36.73
7474;BME280;3778;42.572;23.426;2022-08-01T10:54:29;70970.19;;;-146.70;37.37
7474;BME280;3778;42.572;23.426;2022-08-01T10:57:06;70941.19;;;-146.70;36.47
7474;BME280;3778;42.572;23.426;2022-08-01T10:59:33;70943.25;;;-146.70;37.15
7474;BME280;3778;42.572;23.426;2022-08-01T11:02:02;70926.69;;;-146.70;36.66
7474;BME280;3778;42.572;23.426;2022-08-01T11:04:33;70957.75;;;-146.70;37.51
7474;BME280;3778;42.572;23.426;2022-08-01T11:07:04;70980.56;;;-146.70;36.82
7474;BME280;3778;42.572;23.426;2022-08-01T11:09:39;70947.41;;;-146.70;37.02
7474;BME280;3778;42.572;23.426;2022-08-01T11:12:10;70955.69;;;-146.70;36.75
7474;BME280;3778;42.572;23.426;2022-08-01T11:17:43;70945.34;;;-146.70;36.76
7474;BME280;3778;42.572;23.426;2022-08-01T11:20:14;70941.19;;;-146.70;36.29
7474;BME280;3778;42.572;23.426;2022-08-01T11:26:20;70966.06;;;-146.70;37.02
7474;BME280;3778;42.572;23.426;2022-08-01T11:29:11;70934.97;;;-146.70;37.25
7474;BME280;3778;42.572;23.426;2022-08-01T11:31:38;70934.97;;;-146.70;36.39
7474;BME280;3778;42.572;23.426;2022-08-01T11:34:05;70912.19;;;-146.70;36.91
7474;BME280;3778;42.572;23.426;2022-08-01T11:36:32;70891.47;;;-146.70;36.67
7474;BME280;3778;42.572;23.426;2022-08-01T11:39:16;70883.19;;;-146.70;37.04
7474;BME280;3778;42.572;23.426;2022-08-01T11:41:45;70870.75;;;-146.70;37.00
7474;BME280;3778;42.572;23.426;2022-08-01T11:44:23;70887.31;;;-146.70;36.10
7474;BME280;3778;42.572;23.426;2022-08-01T11:46:58;70870.75;;;-146.70;37.23
7474;BME280;3778;42.572;23.426;2022-08-01T11:49:55;70866.59;;;-146.70;36.69
7474;BME280;3778;42.572;23.426;2022-08-01T11:52:27;70837.59;;;-146.70;36.67
7474;BME280;3778;42.572;23.426;2022-08-01T11:54:55;70833.47;;;-146.70;37.02
7474;BME280;3778;42.572;23.426;2022-08-01T11:57:24;70837.59;;;-146.70;36.51
7474;BME280;3778;42.572;23.426;2022-08-01T11:59:53;70872.81;;;-146.70;36.30
7474;BME280;3778;42.572;23.426;2022-08-01T12:02:22;70864.53;;;-146.70;36.72
7474;BME280;3778;42.572;23.426;2022-08-01T12:04:54;70864.53;;;-146.70;37.39
7474;BME280;3778;42.572;23.426;2022-08-01T12:07:22;70862.47;;;-146.70;36.95
7474;BME280;3778;42.572;23.426;2022-08-01T12:09:57;70870.75;;;-146.70;36.64
7474;BME280;3778;42.572;23.426;2022-08-01T12:12:24;70856.25;;;-146.70;37.62
7474;BME280;3778;42.572;23.426;2022-08-01T12:14:58;70839.69;;;-146.70;36.44
7474;BME280;3778;42.572;23.426;2022-08-01T12:17:30;70854.19;;;-146.70;37.38
7474;BME280;3778;42.572;23.426;2022-08-01T12:19:57;70876.97;;;-146.70;36.76
7474;BME280;3778;42.572;23.426;2022-08-01T12:22:24;70874.91;;;-146.70;36.70
7474;BME280;3778;42.572;23.426;2022-08-01T12:24:51;70854.19;;;-146.70;36.57
7474;BME280;3778;42.572;23.426;2022-08-01T12:27:26;70841.75;;;-146.70;36.75
7474;BME280;3778;42.572;23.426;2022-08-01T12:29:54;70829.31;;;-146.70;37.48
7474;BME280;3778;42.572;23.426;2022-08-01T12:32:24;70821.03;;;-146.70;36.57
7474;BME280;3778;42.572;23.426;2022-08-01T12:34:53;70841.75;;;-146.70;36.57
7474;BME280;3778;42.572;23.426;2022-08-01T12:37:20;70854.19;;;-146.70;36.81
7474;BME280;3778;42.572;23.426;2022-08-01T12:39:48;70833.47;;;-146.70;36.73
7474;BME280;3778;42.572;23.426;2022-08-01T12:42:14;70835.53;;;-146.70;36.61
7474;BME280;3778;42.572;23.426;2022-08-01T12:44:44;70835.53;;;-146.70;35.92
7474;BME280;3778;42.572;23.426;2022-08-01T12:47:12;70831.38;;;-146.70;36.36
7474;BME280;3778;42.572;23.426;2022-08-01T12:49:43;70829.31;;;-146.70;35.93
7474;BME280;3778;42.572;23.426;2022-08-01T12:52:11;70806.53;;;-146.70;36.46
7474;BME280;3778;42.572;23.426;2022-08-01T12:55:00;70814.81;;;-146.70;36.59
7474;BME280;3778;42.572;23.426;2022-08-01T12:57:27;70833.47;;;-146.70;35.97
7474;BME280;3778;42.572;23.426;2022-08-01T13:00:05;70825.19;;;-146.70;36.66
7474;BME280;3778;42.572;23.426;2022-08-01T13:02:32;70841.75;;;-146.70;36.78
7474;BME280;3778;42.572;23.426;2022-08-01T13:05:01;70864.53;;;-146.70;36.55
7474;BME280;3778;42.572;23.426;2022-08-01T13:07:35;70814.81;;;-146.70;36.91
7474;BME280;3778;42.572;23.426;2022-08-01T13:10:02;70779.59;;;-146.70;36.17
7474;BME280;3778;42.572;23.426;2022-08-01T13:12:30;70773.38;;;-146.70;35.60
7474;BME280;3778;42.572;23.426;2022-08-01T13:14:56;70765.09;;;-146.70;35.99